Latest Coastal Weather Observations for Esperance Harbour

IDW60701

Issued at 3:41 am WST Saturday 30 April 2016 (issued every 10 minutes, with the page automatically refreshed every 10 minutes)

About coastal observations | Map of coastal stations | Coastal observations for WA | Marine services | Other Formats
Station Details ID: 109504 Name: ESPERANCE NTC AWS Lat: -33.87 Lon: 121.90 Height: 0.0 m
Data from the previous 72 hours. | See also: Recent months for locations in Western Australia
Date/Time
WST
Temp

°C
Wind Pressure Rain
since 9am
mm
Weather Cloud Vis
km
Sea
Height
m
Swell
Dir
 
Speed
knots
Gust
knots
hPa Trend Height
m
Period
s
Dir
30/03:30am 13.5 - - - 1011.1 - - - - - - - - -
30/03:00am 15.2 - - - 1011.1 - - - - - - - - -
30/02:30am 14.8 - - - 1010.8 - - - - - - - - -
30/02:00am 13.4 - - - 1010.6 - - - - - - - - -
30/01:30am 13.5 - - - 1010.8 - - - - - - - - -
30/01:00am 14.1 - - - 1010.7 - - - - - - - - -
30/12:30am 14.3 - - - 1010.8 - - - - - - - - -
30/12:00am 14.3 - - - 1010.1 - - - - - - - - -
 
Date/Time
WST
Temp

°C
Wind Pressure Rain
since 9am
mm
Weather Cloud Vis
km
Sea
Height
m
Swell
Dir
 
Speed
knots
Gust
knots
hPa Trend Height
m
Period
s
Dir
29/11:30pm 14.6 - - - 1010.4 - - - - - - - - -
29/11:00pm 14.5 - - - 1010.4 - - - - - - - - -
29/10:30pm 14.1 - - - 1010.4 - - - - - - - - -
29/10:00pm 14.5 - - - 1010.5 - - - - - - - - -
29/09:30pm 15.0 - - - 1010.3 - - - - - - - - -
29/09:00pm 15.1 - - - 1010.0 - - - - - - - - -
29/08:30pm 15.6 - - - 1009.8 - - - - - - - - -
29/08:00pm 15.7 - - - 1009.5 - - - - - - - - -
29/07:30pm 16.5 - - - 1009.1 - - - - - - - - -
29/07:00pm 17.1 - - - 1009.0 - - - - - - - - -
29/06:30pm 18.9 - - - 1007.9 - - - - - - - - -
29/06:00pm 19.5 - - - 1007.6 - - - - - - - - -
29/05:30pm 19.6 - - - 1007.6 - - - - - - - - -
29/05:00pm 19.7 - - - 1007.7 - - - - - - - - -
29/04:30pm 19.9 - - - 1007.9 - - - - - - - - -
29/04:00pm 20.0 - - - 1008.1 - - - - - - - - -
29/03:30pm 19.6 - - - 1008.3 - - - - - - - - -
29/03:00pm 19.7 - - - 1008.4 - - - - - - - - -
29/02:30pm 19.7 - - - 1008.3 - - - - - - - - -
29/02:00pm 19.9 - - - 1008.3 - - - - - - - - -
29/01:30pm 19.4 - - - 1008.4 - - - - - - - - -
29/01:00pm 19.0 - - - 1008.6 - - - - - - - - -
29/12:30pm 18.9 - - - 1008.8 - - - - - - - - -
29/12:00pm 18.6 - - - 1009.1 - - - - - - - - -
29/11:30am 18.9 - - - 1009.5 - - - - - - - - -
29/11:00am 17.4 - - - 1010.0 - - - - - - - - -
29/10:30am 17.3 - - - 1010.3 - - - - - - - - -
29/10:00am 16.5 - - - 1010.6 - - - - - - - - -
29/09:30am 15.8 - - - 1011.0 - - - - - - - - -
29/09:00am 14.9 - - - 1011.3 - - - - - - - - -
29/08:30am 13.6 - - - 1011.4 - - - - - - - - -
29/08:00am 12.7 - - - 1011.7 - - - - - - - - -
29/07:30am 11.5 - - - 1011.5 - - - - - - - - -
29/07:00am 11.0 - - - 1011.3 - - - - - - - - -
29/06:30am 10.8 - - - 1011.5 - - - - - - - - -
29/06:00am 11.0 - - - 1011.3 - - - - - - - - -
29/05:30am 11.2 - - - 1011.2 - - - - - - - - -
29/05:00am 11.3 - - - 1011.2 - - - - - - - - -
29/04:30am 11.3 - - - 1011.1 - - - - - - - - -
29/04:00am 11.6 - - - 1011.1 - - - - - - - - -
29/03:30am 11.6 - - - 1011.2 - - - - - - - - -
29/03:00am 11.8 - - - 1011.1 - - - - - - - - -
29/02:30am 12.0 - - - 1011.3 - - - - - - - - -
29/02:00am 12.2 - - - 1011.4 - - - - - - - - -
29/01:30am 12.5 - - - 1011.3 - - - - - - - - -
29/01:00am 12.6 - - - 1011.1 - - - - - - - - -
29/12:30am 12.8 - - - 1010.9 - - - - - - - - -
29/12:00am 13.3 - - - 1011.1 - - - - - - - - -
 
Date/Time
WST
Temp

°C
Wind Pressure Rain
since 9am
mm
Weather Cloud Vis
km
Sea
Height
m
Swell
Dir
 
Speed
knots
Gust
knots
hPa Trend Height
m
Period
s
Dir
28/11:30pm 13.3 - - - 1011.1 - - - - - - - - -
28/11:00pm 13.4 - - - 1011.3 - - - - - - - - -
28/10:30pm 13.6 - - - 1011.4 - - - - - - - - -
28/10:00pm 13.6 - - - 1011.4 - - - - - - - - -
28/09:30pm 14.0 - - - 1011.4 - - - - - - - - -
28/09:00pm 14.8 - - - 1011.3 - - - - - - - - -
28/08:30pm 14.4 - - - 1011.1 - - - - - - - - -
28/08:00pm 15.3 - - - 1011.0 - - - - - - - - -
28/07:30pm 14.4 - - - 1010.9 - - - - - - - - -
28/07:00pm 14.1 - - - 1010.8 - - - - - - - - -
28/06:30pm 14.2 - - - 1010.5 - - - - - - - - -
28/06:00pm 14.6 - - - 1009.6 - - - - - - - - -
28/05:30pm 14.9 - - - 1009.1 - - - - - - - - -
28/05:00pm 15.2 - - - 1009.0 - - - - - - - - -
28/04:30pm 15.6 - - - 1008.4 - - - - - - - - -
28/04:00pm 14.9 - - - 1007.9 - - - - - - - - -
28/03:30pm 16.4 - - - 1007.3 - - - - - - - - -
28/03:00pm 20.8 - - - 1005.8 - - - - - - - - -
28/02:30pm 20.9 - - - 1005.6 - - - - - - - - -
28/02:00pm 20.6 - - - 1005.9 - - - - - - - - -
28/01:30pm 20.6 - - - 1005.9 - - - - - - - - -
28/01:00pm 20.2 - - - 1006.3 - - - - - - - - -
28/12:30pm 19.8 - - - 1007.3 - - - - - - - - -
28/12:00pm 19.2 - - - 1008.2 - - - - - - - - -
28/11:30am 19.1 - - - 1008.9 - - - - - - - - -
28/11:00am 18.5 - - - 1009.4 - - - - - - - - -
28/10:30am 18.1 - - - 1010.0 - - - - - - - - -
28/10:00am 17.2 - - - 1010.7 - - - - - - - - -
28/09:30am 15.9 - - - 1011.4 - - - - - - - - -
28/09:00am 15.5 - - - 1011.7 - - - - - - - - -
28/08:30am 13.9 - - - 1012.0 - - - - - - - - -
28/08:00am 13.0 - - - 1012.3 - - - - - - - - -
28/07:30am 12.2 - - - 1012.2 - - - - - - - - -
28/07:00am 11.4 - - - 1012.2 - - - - - - - - -
28/06:30am 11.5 - - - 1012.3 - - - - - - - - -
28/06:00am 11.4 - - - 1012.5 - - - - - - - - -
28/05:30am 11.7 - - - 1012.5 - - - - - - - - -
28/05:00am 11.9 - - - 1012.6 - - - - - - - - -
28/04:30am 12.1 - - - 1012.6 - - - - - - - - -
28/04:00am 11.9 - - - 1012.6 - - - - - - - - -
28/03:30am 11.4 - - - 1012.8 - - - - - - - - -
28/03:00am 11.2 - - - 1012.9 - - - - - - - - -
28/02:30am 11.8 - - - 1013.2 - - - - - - - - -
28/02:00am 12.3 - - - 1013.4 - - - - - - - - -
28/01:30am 12.6 - - - 1013.6 - - - - - - - - -
28/01:00am 12.5 - - - 1013.9 - - - - - - - - -
28/12:30am 12.2 - - - 1014.1 - - - - - - - - -
28/12:00am 12.4 - - - 1014.3 - - - - - - - - -
 
Date/Time
WST
Temp

°C
Wind Pressure Rain
since 9am
mm
Weather Cloud Vis
km
Sea
Height
m
Swell
Dir
 
Speed
knots
Gust
knots
hPa Trend Height
m
Period
s
Dir
27/11:30pm 12.4 - - - 1014.4 - - - - - - - - -
27/11:00pm 11.9 - - - 1014.8 - - - - - - - - -
27/10:30pm 11.9 - - - 1015.0 - - - - - - - - -
27/10:00pm 12.4 - - - 1015.2 - - - - - - - - -
27/09:30pm 12.7 - - - 1015.5 - - - - - - - - -
27/09:00pm 12.5 - - - 1015.4 - - - - - - - - -
27/08:30pm 12.9 - - - 1015.5 - - - - - - - - -
27/08:00pm 13.2 - - - 1015.5 - - - - - - - - -
27/07:30pm 13.3 - - - 1015.5 - - - - - - - - -
27/07:00pm 13.4 - - - 1015.3 - - - - - - - - -
27/06:30pm 13.9 - - - 1015.1 - - - - - - - - -
27/06:00pm 14.4 - - - 1014.8 - - - - - - - - -
27/05:30pm 15.1 - - - 1014.7 - - - - - - - - -
27/05:00pm 15.8 - - - 1014.5 - - - - - - - - -
27/04:30pm 16.3 - - - 1014.5 - - - - - - - - -
27/04:00pm 16.6 - - - 1014.5 - - - - - - - - -
27/03:30pm 16.6 - - - 1014.3 - - - - - - - - -
27/03:00pm 16.4 - - - 1014.2 - - - - - - - - -
27/02:30pm 16.6 - - - 1014.2 - - - - - - - - -
27/02:00pm 17.0 - - - 1014.3 - - - - - - - - -
27/01:30pm 16.5 - - - 1014.2 - - - - - - - - -
27/01:00pm 16.1 - - - 1014.0 - - - - - - - - -
27/12:30pm 16.0 - - - 1014.3 - - - - - - - - -
27/12:00pm 15.9 - - - 1014.4 - - - - - - - - -
27/11:30am 15.8 - - - 1014.5 - - - - - - - - -
27/11:00am 15.5 - - - 1014.8 - - - - - - - - -
27/10:30am 15.3 - - - 1014.9 - - - - - - - - -
27/10:00am 14.6 - - - 1015.1 - - - - - - - - -
27/09:30am 14.1 - - - 1015.0 - - - - - - - - -
27/09:00am 13.3 - - - 1014.8 - - - - - - - - -
27/08:30am 12.1 - - - 1014.7 - - - - - - - - -
27/08:00am 11.4 - - - 1014.5 - - - - - - - - -
27/07:30am 10.7 - - - 1014.3 - - - - - - - - -
27/07:00am 10.0 - - - 1014.1 - - - - - - - - -
27/06:30am 10.2 - - - 1013.9 - - - - - - - - -
27/06:00am 10.2 - - - 1013.4 - - - - - - - - -
27/05:30am 10.3 - - - 1013.2 - - - - - - - - -
27/05:00am 10.3 - - - 1013.3 - - - - - - - - -
27/04:30am 10.3 - - - 1012.9 - - - - - - - - -
27/04:00am 11.2 - - - 1012.9 - - - - - - - - -

Other Formats:

Comma delimited format used in spreadsheet applications
http://www.bom.gov.au/fwo/IDW60701/IDW60701.95648.axf

JavaScript Object Notation format (JSON) in row-major order
http://www.bom.gov.au/fwo/IDW60701/IDW60701.95648.json